Time;durP1;ratioP1;P1;durP2;ratioP2;P2;SDS_P1;SDS_P2;PMS_P1;PMS_P2;Temp;Humidity;BMP_temperature;BMP_pressure;BME280_temperature;BME280_humidity;BME280_pressure;Samples;Min_cycle;Max_cycle;Signal;HPM_P1;HPM_P2
2021/11/03 00:00:16;;;;;;;1087.38;999.90;;;;;;;8.40;68.68;99787.84;685340;28;46754;-67
2021/11/03 00:00:39;;;;;;;1078.00;999.90;;;;;;;8.41;68.49;99788.69;681928;28;69037;-67
2021/11/03 00:01:00;;;;;;;1076.35;999.90;;;;;;;8.42;68.32;99783.13;680861;28;69407;-67
2021/11/03 00:01:22;;;;;;;1089.13;999.90;;;;;;;8.47;68.39;99782.59;683050;28;21509;-67
2021/11/03 00:01:43;;;;;;;1092.80;999.90;;;;;;;8.47;68.34;99782.59;685998;28;46598;-67
2021/11/03 00:02:05;;;;;;;1096.68;999.90;;;;;;;8.46;67.77;99788.97;688451;28;21551;-67
2021/11/03 00:02:27;;;;;;;1101.88;999.90;;;;;;;8.43;67.28;99786.63;686572;28;69587;-67
2021/11/03 00:02:49;;;;;;;1067.22;996.47;;;;;;;8.41;67.29;99784.13;689739;28;21538;-67
2021/11/03 00:03:11;;;;;;;1039.90;970.28;;;;;;;8.40;67.14;99787.00;689061;28;45238;-66
2021/11/03 00:03:33;;;;;;;1058.80;988.35;;;;;;;8.38;67.37;99786.38;688345;28;46154;-66
2021/11/03 00:03:54;;;;;;;1075.20;999.90;;;;;;;8.36;67.13;99791.09;688710;28;45249;-67
2021/11/03 00:04:16;;;;;;;1090.07;999.90;;;;;;;8.35;67.24;99792.13;689555;28;22234;-67
2021/11/03 00:04:39;;;;;;;1081.53;999.90;;;;;;;8.34;67.25;99783.22;689032;28;47194;-67
2021/11/03 00:05:01;;;;;;;1027.00;957.85;;;;;;;8.31;67.05;99794.34;687512;28;69180;-67
2021/11/03 00:05:24;;;;;;;1038.15;968.50;;;;;;;8.31;67.51;99788.97;686045;28;115128;-67
2021/11/03 00:05:47;;;;;;;1041.90;972.10;;;;;;;8.30;67.39;99788.13;690084;28;23440;-67
2021/11/03 00:06:08;;;;;;;1044.40;974.53;;;;;;;8.27;67.71;99785.78;688994;28;46322;-66
2021/11/03 00:06:29;;;;;;;1052.60;982.38;;;;;;;8.27;67.51;99788.47;689974;28;19461;-66
2021/11/03 00:06:50;;;;;;;1058.03;987.55;;;;;;;8.27;67.52;99787.66;689474;28;21535;-66
2021/11/03 00:07:13;;;;;;;1063.75;993.10;;;;;;;8.23;67.65;99787.22;688658;28;44378;-66
2021/11/03 00:07:34;;;;;;;1074.38;999.90;;;;;;;8.22;67.26;99795.47;688866;28;46318;-66
2021/11/03 00:07:56;;;;;;;1072.88;999.90;;;;;;;8.18;67.34;99786.94;686750;28;22382;-67
2021/11/03 00:08:20;;;;;;;1069.30;998.10;;;;;;;8.15;67.37;99781.94;686831;28;46107;-67
2021/11/03 00:08:42;;;;;;;1100.63;999.90;;;;;;;8.14;67.56;99779.41;687042;28;93059;-67
2021/11/03 00:09:04;;;;;;;1054.32;984.05;;;;;;;8.10;67.40;99784.31;687173;28;67485;-67
2021/11/03 00:09:26;;;;;;;1049.15;979.08;;;;;;;8.08;67.14;99778.28;688941;28;44637;-67
2021/11/03 00:09:47;;;;;;;1058.38;988.00;;;;;;;8.08;67.67;99784.50;690099;28;21511;-67
2021/11/03 00:10:11;;;;;;;1067.18;996.45;;;;;;;8.08;67.48;99786.34;688683;28;45254;-67
2021/11/03 00:10:33;;;;;;;1073.95;999.90;;;;;;;8.08;67.66;99789.03;686992;28;92419;-67
2021/11/03 00:10:54;;;;;;;1083.40;999.90;;;;;;;8.05;67.81;99790.25;689106;28;22413;-67
2021/11/03 00:11:15;;;;;;;1069.28;998.33;;;;;;;8.05;67.76;99786.72;689157;28;22686;-67
2021/11/03 00:11:38;;;;;;;1052.45;982.33;;;;;;;8.02;67.78;99789.78;688499;28;46286;-67
2021/11/03 00:11:59;;;;;;;1058.97;988.47;;;;;;;8.02;67.78;99792.47;688361;28;70288;-67
2021/11/03 00:12:20;;;;;;;1062.95;992.35;;;;;;;8.01;68.04;99790.78;689200;28;23441;-67
2021/11/03 00:12:42;;;;;;;1065.72;995.08;;;;;;;7.98;67.74;99789.31;690135;28;22386;-67
2021/11/03 00:13:04;;;;;;;1053.07;982.88;;;;;;;7.94;67.72;99791.53;689192;28;21304;-67
2021/11/03 00:13:27;;;;;;;1081.82;999.90;;;;;;;7.90;67.58;99790.22;687888;28;45028;-67
2021/11/03 00:13:48;;;;;;;1086.47;999.90;;;;;;;7.89;67.60;99788.56;687640;28;70795;-67
2021/11/03 00:14:09;;;;;;;1070.63;999.75;;;;;;;7.86;67.65;99786.22;688284;28;44203;-67
2021/11/03 00:14:31;;;;;;;1090.43;999.90;;;;;;;7.85;67.61;99791.78;688013;28;21299;-67
2021/11/03 00:14:53;;;;;;;1091.63;999.90;;;;;;;7.80;67.49;99781.59;689132;28;46511;-67
2021/11/03 00:15:14;;;;;;;1047.20;977.30;;;;;;;7.77;67.30;99784.63;689160;28;22371;-67
2021/11/03 00:15:35;;;;;;;1048.88;978.88;;;;;;;7.75;67.24;99784.81;689676;28;21323;-67
2021/11/03 00:15:57;;;;;;;1054.57;984.25;;;;;;;7.73;67.30;99780.66;689379;28;23324;-67
2021/11/03 00:16:19;;;;;;;1064.18;993.58;;;;;;;7.71;67.54;99791.59;688497;28;45231;-67
2021/11/03 00:16:40;;;;;;;1057.40;987.10;;;;;;;7.69;67.70;99790.91;688709;28;45242;-67
2021/11/03 00:17:01;;;;;;;1045.35;975.63;;;;;;;7.70;67.89;99781.03;689573;28;23466;-67
2021/11/03 00:17:23;;;;;;;1071.97;999.90;;;;;;;7.64;67.83;99779.88;689946;28;21672;-67
2021/11/03 00:17:44;;;;;;;1079.28;999.90;;;;;;;7.65;67.71;99792.31;688772;28;44331;-67
2021/11/03 00:18:05;;;;;;;1070.60;999.65;;;;;;;7.65;67.90;99789.63;690016;28;22380;-67
2021/11/03 00:18:27;;;;;;;1099.30;999.90;;;;;;;7.65;67.83;99788.78;690077;28;22404;-67
2021/11/03 00:18:49;;;;;;;1123.13;999.90;;;;;;;7.63;67.82;99793.50;689610;28;23373;-67
2021/11/03 00:19:10;;;;;;;1074.63;999.90;;;;;;;7.62;68.02;99786.44;688708;28;45209;-67
2021/11/03 00:19:31;;;;;;;1056.57;986.33;;;;;;;7.63;67.95;99794.31;690105;28;23495;-67
2021/11/03 00:19:52;;;;;;;1072.90;999.90;;;;;;;7.66;68.19;99787.75;690056;28;22390;-67
2021/11/03 00:20:14;;;;;;;1099.97;999.90;;;;;;;7.65;68.41;99791.47;689279;28;22121;-65
2021/11/03 00:20:36;;;;;;;1090.43;999.90;;;;;;;7.65;68.37;99786.94;688432;28;46391;-65
2021/11/03 00:20:58;;;;;;;1098.75;999.90;;;;;;;7.65;68.62;99786.09;688743;28;22324;-66
2021/11/03 00:21:19;;;;;;;1121.38;999.90;;;;;;;7.66;68.78;99790.44;688856;28;46314;-66
2021/11/03 00:21:41;;;;;;;1132.38;999.90;;;;;;;7.68;68.60;99793.78;689767;28;23546;-66
2021/11/03 00:22:03;;;;;;;1122.03;999.90;;;;;;;7.66;68.54;99796.66;688027;28;69316;-65
2021/11/03 00:22:24;;;;;;;1103.25;999.90;;;;;;;7.66;68.43;99787.75;690027;28;22373;-66
2021/11/03 00:22:45;;;;;;;1101.95;999.90;;;;;;;7.66;68.45;99795.81;689408;28;23476;-66
2021/11/03 00:23:06;;;;;;;1095.32;999.90;;;;;;;7.65;68.70;99796.84;689698;28;23701;-66
2021/11/03 00:23:30;;;;;;;1105.47;999.90;;;;;;;7.65;68.56;99783.41;688601;28;46326;-66
2021/11/03 00:23:51;;;;;;;1092.43;999.90;;;;;;;7.63;68.58;99791.63;688408;28;70086;-66
2021/11/03 00:24:12;;;;;;;1082.18;999.90;;;;;;;7.62;68.38;99795.38;689218;28;22399;-66
2021/11/03 00:24:34;;;;;;;1080.65;999.90;;;;;;;7.62;68.32;99795.38;688112;28;45246;-66
2021/11/03 00:24:55;;;;;;;1075.38;999.90;;;;;;;7.62;68.23;99794.50;689088;28;46248;-66
2021/11/03 00:25:17;;;;;;;1073.22;999.90;;;;;;;7.61;68.60;99792.84;686981;28;44369;-66
2021/11/03 00:25:40;;;;;;;1069.72;999.25;;;;;;;7.62;68.57;99795.38;689863;28;21374;-66
2021/11/03 00:26:02;;;;;;;1059.30;989.60;;;;;;;7.62;68.45;99797.19;686697;28;90739;-66
2021/11/03 00:26:24;;;;;;;1050.72;981.33;;;;;;;7.60;68.22;99796.53;689254;28;46298;-66
2021/11/03 00:26:45;;;;;;;1055.15;985.38;;;;;;;7.59;68.19;99795.72;689878;28;22348;-66
2021/11/03 00:27:06;;;;;;;1061.60;991.53;;;;;;;7.58;68.17;99794.03;688930;28;43687;-66
2021/11/03 00:27:28;;;;;;;1058.35;988.35;;;;;;;7.56;68.06;99796.91;690056;28;22394;-66
2021/11/03 00:27:49;;;;;;;1071.63;999.90;;;;;;;7.57;68.08;99797.75;687073;28;46351;-66
2021/11/03 00:28:12;;;;;;;1079.05;999.90;;;;;;;7.57;67.94;99797.75;685791;28;23528;-66
2021/11/03 00:28:33;;;;;;;1082.45;999.90;;;;;;;7.52;67.79;99800.13;683535;28;69384;-66
2021/11/03 00:28:56;;;;;;;1088.38;999.90;;;;;;;7.52;67.92;99802.81;685438;28;22453;-66
2021/11/03 00:29:17;;;;;;;1090.75;999.90;;;;;;;7.50;68.09;99800.31;680427;28;69273;-66
2021/11/03 00:29:39;;;;;;;1088.25;999.90;;;;;;;7.50;68.06;99799.50;682504;28;22400;-66
2021/11/03 00:30:00;;;;;;;1078.45;999.90;;;;;;;7.49;68.08;99795.97;685243;28;45264;-66
2021/11/03 00:30:22;;;;;;;1074.57;999.90;;;;;;;7.50;67.95;99794.13;686756;28;45379;-66
2021/11/03 00:30:44;;;;;;;1074.15;999.90;;;;;;;7.51;67.90;99795.78;688441;28;21538;-65
2021/11/03 00:31:05;;;;;;;1078.43;999.90;;;;;;;7.50;67.77;99796.81;686588;28;68410;-66
2021/11/03 00:31:27;;;;;;;1088.53;999.90;;;;;;;7.47;67.99;99794.47;687419;28;46304;-66
2021/11/03 00:31:48;;;;;;;1109.78;999.90;;;;;;;7.48;67.76;99798.84;691262;28;24032;-66
2021/11/03 00:32:11;;;;;;;1106.15;999.90;;;;;;;7.49;68.05;99800.50;686188;28;23420;-66
2021/11/03 00:32:33;;;;;;;1111.90;999.90;;;;;;;7.51;68.29;99801.16;683944;28;88614;-66
2021/11/03 00:32:54;;;;;;;1096.07;999.90;;;;;;;7.50;67.91;99799.50;685123;28;45252;-66
2021/11/03 00:33:16;;;;;;;1075.32;999.90;;;;;;;7.47;68.00;99791.78;683495;28;22337;-66
2021/11/03 00:33:40;;;;;;;1069.80;999.20;;;;;;;7.51;68.00;99798.47;684335;28;46315;-65
2021/11/03 00:34:01;;;;;;;1090.35;999.90;;;;;;;7.50;68.12;99799.50;682758;28;92003;-66
2021/11/03 00:34:22;;;;;;;1106.15;999.90;;;;;;;7.49;67.87;99795.97;686019;28;22467;-66
2021/11/03 00:34:43;;;;;;;1115.60;999.90;;;;;;;7.50;67.90;99792.25;685934;28;44226;-66
2021/11/03 00:35:06;;;;;;;1104.95;999.90;;;;;;;7.50;67.76;99802.19;690216;28;21588;-66
2021/11/03 00:35:28;;;;;;;1086.53;999.90;;;;;;;7.48;67.73;99788.91;690748;28;46385;-66
2021/11/03 00:35:50;;;;;;;1085.95;999.90;;;;;;;7.48;67.57;99799.66;688706;28;46317;-66
2021/11/03 00:36:12;;;;;;;1078.13;999.90;;;;;;;7.48;67.71;99796.97;687856;28;65669;-66
2021/11/03 00:36:34;;;;;;;1070.88;999.58;;;;;;;7.47;67.73;99800.69;687744;28;68336;-66
2021/11/03 00:36:55;;;;;;;1063.53;993.20;;;;;;;7.46;67.54;99800.84;688922;28;22396;-66
2021/11/03 00:37:16;;;;;;;1058.88;988.72;;;;;;;7.42;67.58;99795.00;689042;28;22383;-66
2021/11/03 00:37:40;;;;;;;1063.65;993.13;;;;;;;7.42;67.67;99797.69;684258;28;44382;-66
2021/11/03 00:38:01;;;;;;;1064.32;993.67;;;;;;;7.43;67.88;99790.47;678699;29;69398;-66
2021/11/03 00:38:22;;;;;;;1056.25;986.20;;;;;;;7.43;67.97;99795.84;681552;28;23423;-66
2021/11/03 00:38:45;;;;;;;1079.97;999.90;;;;;;;7.46;68.01;99799.03;682005;28;46434;-66
2021/11/03 00:39:07;;;;;;;1101.13;999.90;;;;;;;7.49;68.10;99795.97;679888;28;68971;-66
2021/11/03 00:39:29;;;;;;;1119.90;999.90;;;;;;;7.54;68.03;99798.94;681261;28;45063;-66
2021/11/03 00:39:50;;;;;;;1117.28;999.90;;;;;;;7.58;68.23;99800.25;680537;28;44323;-66
2021/11/03 00:40:12;;;;;;;1113.72;999.90;;;;;;;7.61;68.41;99800.91;681184;28;23584;-66
2021/11/03 00:40:34;;;;;;;1116.85;999.90;;;;;;;7.61;68.28;99798.22;683280;28;22181;-66
2021/11/03 00:40:56;;;;;;;1109.07;999.90;;;;;;;7.60;67.80;99799.22;682124;28;69399;-66
2021/11/03 00:41:17;;;;;;;1092.03;999.90;;;;;;;7.57;67.65;99801.28;685509;28;23468;-66
2021/11/03 00:41:38;;;;;;;1079.22;999.90;;;;;;;7.56;67.49;99794.22;686502;28;23471;-66
2021/11/03 00:42:00;;;;;;;1063.28;993.00;;;;;;;7.54;67.37;99801.63;690039;28;23765;-66
2021/11/03 00:42:21;;;;;;;1058.13;988.05;;;;;;;7.53;67.53;99799.13;687321;28;46418;-66
2021/11/03 00:42:42;;;;;;;1075.97;999.90;;;;;;;7.52;67.46;99803.69;682855;28;22365;-66
2021/11/03 00:43:04;;;;;;;1085.95;999.90;;;;;;;7.51;67.25;99793.94;682385;28;46322;-66
2021/11/03 00:43:27;;;;;;;1084.35;999.90;;;;;;;7.51;67.16;99802.00;682561;28;44366;-66
2021/11/03 00:43:50;;;;;;;1082.28;999.90;;;;;;;7.49;67.33;99797.81;681999;28;45227;-66
2021/11/03 00:44:11;;;;;;;1083.18;999.90;;;;;;;7.48;67.37;99794.28;680916;28;82765;-66
2021/11/03 00:44:32;;;;;;;1096.25;999.90;;;;;;;7.45;67.12;99794.66;684383;28;22540;-66
2021/11/03 00:44:55;;;;;;;1088.03;999.90;;;;;;;7.45;67.08;99800.03;679084;29;44984;-66
2021/11/03 00:45:17;;;;;;;1063.45;993.13;;;;;;;7.44;67.08;99794.84;675150;28;44374;-66
2021/11/03 00:45:39;;;;;;;1056.95;986.85;;;;;;;7.40;67.10;99794.38;678177;29;44339;-66
2021/11/03 00:46:01;;;;;;;1058.72;988.70;;;;;;;7.42;67.38;99794.19;679482;28;69419;-66
2021/11/03 00:46:23;;;;;;;1053.50;983.58;;;;;;;7.44;67.43;99792.97;680388;29;21525;-66
2021/11/03 00:46:45;;;;;;;1053.97;983.97;;;;;;;7.51;67.63;99795.78;679241;29;44343;-66
2021/11/03 00:47:07;;;;;;;1072.60;999.90;;;;;;;7.55;67.82;99797.09;680022;28;45355;-65
2021/11/03 00:47:28;;;;;;;1083.10;999.90;;;;;;;7.61;67.88;99798.22;681107;28;22427;-66
2021/11/03 00:47:50;;;;;;;1086.60;999.90;;;;;;;7.65;67.95;99800.38;679651;29;23535;-65
2021/11/03 00:48:12;;;;;;;1089.20;999.90;;;;;;;7.70;67.86;99791.78;681362;28;21724;-66
2021/11/03 00:48:33;;;;;;;1094.78;999.90;;;;;;;7.73;68.21;99792.22;681825;28;44385;-66
2021/11/03 00:48:54;;;;;;;1095.13;999.90;;;;;;;7.81;68.23;99793.19;680419;28;46689;-66
2021/11/03 00:49:17;;;;;;;1089.72;999.90;;;;;;;7.86;68.34;99794.28;685324;28;22438;-66
2021/11/03 00:49:40;;;;;;;1081.18;999.90;;;;;;;7.87;68.18;99793.28;682067;28;69403;-65
2021/11/03 00:50:02;;;;;;;1074.63;999.90;;;;;;;7.92;68.10;99795.44;683141;28;69445;-66
2021/11/03 00:50:24;;;;;;;1076.68;999.90;;;;;;;7.90;67.44;99789.41;681805;28;44375;-66
2021/11/03 00:50:46;;;;;;;1082.00;999.90;;;;;;;7.88;67.33;99789.59;682969;28;44353;-66
2021/11/03 00:51:09;;;;;;;1081.60;999.90;;;;;;;7.87;66.87;99795.97;684723;28;44355;-66
2021/11/03 00:51:30;;;;;;;1089.32;999.90;;;;;;;7.85;66.69;99794.47;681276;28;69452;-66
2021/11/03 00:51:52;;;;;;;1087.45;999.90;;;;;;;7.82;66.47;99795.69;684261;28;22356;-66
2021/11/03 00:52:13;;;;;;;1086.97;999.90;;;;;;;7.78;66.29;99791.69;683088;28;23263;-66
2021/11/03 00:52:36;;;;;;;1074.88;999.90;;;;;;;7.77;66.20;99790.00;680811;28;21410;-66
2021/11/03 00:52:57;;;;;;;1080.15;999.90;;;;;;;7.76;66.04;99799.94;681716;28;46392;-66
2021/11/03 00:53:18;;;;;;;1085.70;999.90;;;;;;;7.73;66.05;99791.41;683888;28;22393;-66
2021/11/03 00:53:40;;;;;;;1080.85;999.90;;;;;;;7.73;66.23;99788.72;684409;28;47322;-66
2021/11/03 00:54:04;;;;;;;1077.32;999.90;;;;;;;7.71;66.24;99788.91;688352;28;46356;-65
2021/11/03 00:54:26;;;;;;;1072.18;999.90;;;;;;;7.74;66.43;99793.91;682968;28;92131;-66
2021/11/03 00:54:48;;;;;;;1073.03;999.90;;;;;;;7.75;66.84;99797.44;679660;29;44337;-65
2021/11/03 00:55:09;;;;;;;1061.65;991.35;;;;;;;7.74;66.69;99791.22;681035;28;46326;-65
2021/11/03 00:55:32;;;;;;;1068.55;997.85;;;;;;;7.78;66.88;99793.56;684994;28;21393;-66
2021/11/03 00:55:53;;;;;;;1072.33;999.90;;;;;;;7.81;66.94;99793.19;678490;29;69495;-66
2021/11/03 00:56:14;;;;;;;1071.28;999.83;;;;;;;7.84;67.14;99792.81;681306;28;46423;-66
2021/11/03 00:56:36;;;;;;;1064.38;993.97;;;;;;;7.85;67.45;99798.03;686238;28;22279;-66
2021/11/03 00:56:58;;;;;;;1078.43;999.90;;;;;;;7.86;67.57;99790.78;684162;28;67459;-65
2021/11/03 00:57:19;;;;;;;1080.47;999.90;;;;;;;7.87;67.31;99787.91;681778;28;22389;-65
2021/11/03 00:57:41;;;;;;;1074.80;999.90;;;;;;;7.84;67.28;99799.03;681704;28;22240;-66
2021/11/03 00:58:03;;;;;;;1073.68;999.90;;;;;;;7.81;66.94;99791.31;683591;28;45239;-66
2021/11/03 00:58:25;;;;;;;1073.57;999.90;;;;;;;7.79;66.91;99795.19;682714;28;69420;-66
2021/11/03 00:58:46;;;;;;;1072.95;999.90;;;;;;;7.76;66.52;99793.72;684548;28;22211;-66
2021/11/03 00:59:07;;;;;;;1074.32;999.90;;;;;;;7.73;66.39;99794.09;688917;28;22391;-66
2021/11/03 00:59:29;;;;;;;1066.97;996.47;;;;;;;7.69;66.24;99796.28;685472;28;23460;-66
2021/11/03 00:59:50;;;;;;;1071.80;999.90;;;;;;;7.67;66.22;99792.13;685224;28;46285;-66
2021/11/03 01:00:13;;;;;;;1069.50;999.10;;;;;;;7.68;66.41;99801.84;683287;28;44344;-66
2021/11/03 01:00:34;;;;;;;1066.28;995.90;;;;;;;7.65;66.67;99795.00;679847;28;46388;-66
2021/11/03 01:00:57;;;;;;;1065.60;995.25;;;;;;;7.64;66.54;99792.50;678921;28;44347;-66
2021/11/03 01:01:18;;;;;;;1069.78;999.22;;;;;;;7.61;66.47;99799.06;678067;29;46269;-66
2021/11/03 01:01:39;;;;;;;1072.18;999.90;;;;;;;7.58;66.61;99802.09;684089;28;22409;-66
2021/11/03 01:02:00;;;;;;;1064.60;994.25;;;;;;;7.54;66.39;99795.44;684290;28;22412;-66
2021/11/03 01:02:23;;;;;;;1066.85;996.42;;;;;;;7.50;66.47;99800.31;684971;28;23731;-66
2021/11/03 01:02:46;;;;;;;1068.72;998.22;;;;;;;7.47;66.37;99799.84;686347;28;92242;-66
2021/11/03 01:03:07;;;;;;;1071.60;999.90;;;;;;;7.44;66.22;99798.34;690140;28;45230;-66
2021/11/03 01:03:29;;;;;;;1069.03;998.42;;;;;;;7.40;66.15;99797.88;688389;28;21537;-66
2021/11/03 01:03:51;;;;;;;1065.60;995.10;;;;;;;7.37;66.35;99805.47;687304;28;67445;-66
2021/11/03 01:04:12;;;;;;;1068.05;997.50;;;;;;;7.34;66.21;99800.44;685999;28;23471;-66
2021/11/03 01:04:34;;;;;;;1062.70;992.38;;;;;;;7.30;66.34;99797.28;682416;28;46395;-65
2021/11/03 01:04:56;;;;;;;1056.53;986.42;;;;;;;7.26;66.39;99795.97;683355;28;22365;-65
2021/11/03 01:05:21;;;;;;;1053.07;983.08;;;;;;;7.22;66.62;99789.28;681596;28;66269;-65
2021/11/03 01:05:42;;;;;;;1058.25;987.95;;;;;;;7.19;66.77;99798.53;677013;28;115945;-66
2021/11/03 01:06:04;;;;;;;1060.63;990.38;;;;;;;7.17;66.68;99791.66;680639;28;45094;-65
2021/11/03 01:06:27;;;;;;;1060.72;990.50;;;;;;;7.14;66.90;99794.72;681953;28;69366;-66
2021/11/03 01:06:48;;;;;;;1066.03;995.55;;;;;;;7.13;67.21;99793.88;683017;28;22396;-66
2021/11/03 01:07:09;;;;;;;1067.15;996.63;;;;;;;7.14;67.26;99797.41;682948;28;22164;-66
2021/11/03 01:07:30;;;;;;;1065.22;994.75;;;;;;;7.13;67.19;99795.72;684297;28;21535;-66
2021/11/03 01:07:52;;;;;;;1069.47;998.60;;;;;;;7.11;67.27;99797.75;684573;28;46341;-66
2021/11/03 01:08:14;;;;;;;1074.88;999.90;;;;;;;7.11;67.61;99801.25;687624;28;46394;-66
2021/11/03 01:08:35;;;;;;;1069.97;999.17;;;;;;;7.09;67.45;99799.78;684851;28;44348;-66
2021/11/03 01:08:58;;;;;;;1062.93;992.53;;;;;;;7.07;67.57;99796.41;683032;28;23297;-66
2021/11/03 01:09:20;;;;;;;1062.18;991.78;;;;;;;7.04;67.43;99797.63;682431;28;46349;-66
2021/11/03 01:09:41;;;;;;;1060.47;990.25;;;;;;;7.01;67.65;99797.97;681789;28;45180;-65
2021/11/03 01:10:03;;;;;;;1059.10;988.90;;;;;;;6.99;67.71;99797.31;683007;28;21494;-66
2021/11/03 01:10:26;;;;;;;1053.00;983.00;;;;;;;6.98;67.57;99798.34;680909;28;67284;-66
2021/11/03 01:10:50;;;;;;;1059.38;989.20;;;;;;;6.96;67.71;99801.19;679887;28;69247;-66
2021/11/03 01:11:11;;;;;;;1058.93;988.83;;;;;;;6.94;67.85;99788.94;678906;28;111912;-66
2021/11/03 01:11:33;;;;;;;1058.72;988.53;;;;;;;6.94;67.89;99799.69;685351;28;22394;-66
2021/11/03 01:11:55;;;;;;;1057.82;987.65;;;;;;;6.93;67.95;99798.00;687352;28;45987;-66
2021/11/03 01:12:16;;;;;;;1055.72;985.63;;;;;;;6.91;68.04;99797.34;685777;28;22378;-66
2021/11/03 01:12:38;;;;;;;1059.80;989.58;;;;;;;6.90;68.29;99801.91;684477;28;44385;-66
2021/11/03 01:13:00;;;;;;;1055.13;985.17;;;;;;;6.90;68.31;99795.72;685748;28;22301;-65
2021/11/03 01:13:22;;;;;;;1052.00;982.25;;;;;;;6.88;68.43;99798.56;685690;28;45224;-66
2021/11/03 01:13:44;;;;;;;1047.53;977.95;;;;;;;6.87;68.38;99801.44;685928;28;67497;-66
2021/11/03 01:14:07;;;;;;;1052.57;982.67;;;;;;;6.85;68.57;99793.53;683219;28;47074;-66
2021/11/03 01:14:29;;;;;;;1053.95;984.03;;;;;;;6.85;68.71;99798.91;684735;28;45228;-66
2021/11/03 01:14:52;;;;;;;1052.60;982.80;;;;;;;6.85;68.57;99793.53;680822;28;92468;-66
2021/11/03 01:15:15;;;;;;;1047.80;978.33;;;;;;;6.84;68.80;99794.56;685128;28;23463;-66
2021/11/03 01:15:37;;;;;;;1051.80;982.15;;;;;;;6.85;68.64;99798.91;682480;28;90611;-66
2021/11/03 01:15:59;;;;;;;1067.32;997.03;;;;;;;6.83;68.73;99800.91;682370;28;23458;-65
2021/11/03 01:16:20;;;;;;;1066.23;995.93;;;;;;;6.83;68.83;99798.22;684091;28;69372;-66
2021/11/03 01:16:41;;;;;;;1074.90;999.90;;;;;;;6.82;68.73;99792.03;684596;28;46448;-65
2021/11/03 01:17:03;;;;;;;1073.38;999.90;;;;;;;6.81;68.94;99800.28;684386;28;22385;-65
2021/11/03 01:17:24;;;;;;;1078.50;999.90;;;;;;;6.81;68.87;99795.72;686079;28;22411;-65
2021/11/03 01:17:46;;;;;;;1074.85;999.90;;;;;;;6.80;69.00;99798.59;683786;28;23445;-66
2021/11/03 01:18:07;;;;;;;1067.07;996.70;;;;;;;6.81;68.94;99794.91;682374;28;69376;-66
2021/11/03 01:18:30;;;;;;;1055.13;985.30;;;;;;;6.78;68.85;99793.41;683427;28;23273;-66
2021/11/03 01:18:54;;;;;;;1054.35;984.53;;;;;;;6.80;69.06;99801.28;683040;28;46399;-66
2021/11/03 01:19:15;;;;;;;1068.03;997.47;;;;;;;6.79;68.86;99794.25;682543;28;66423;-66
2021/11/03 01:19:36;;;;;;;1067.25;996.78;;;;;;;6.79;69.06;99794.25;685163;28;21573;-66
2021/11/03 01:19:58;;;;;;;1067.97;997.55;;;;;;;6.78;68.76;99797.94;686759;28;22380;-66
2021/11/03 01:20:19;;;;;;;1070.15;999.55;;;;;;;6.77;68.75;99793.56;685595;28;44369;-66
2021/11/03 01:20:40;;;;;;;1071.53;999.90;;;;;;;6.76;68.85;99794.59;682991;28;46398;-66
2021/11/03 01:21:03;;;;;;;1075.93;999.90;;;;;;;6.75;68.88;99791.06;680962;28;23462;-66
2021/11/03 01:21:25;;;;;;;1061.40;991.38;;;;;;;6.75;69.10;99792.91;679822;29;69516;-66
2021/11/03 01:21:46;;;;;;;1063.15;992.97;;;;;;;6.74;69.01;99789.41;681609;29;22337;-66
2021/11/03 01:22:07;;;;;;;1067.07;996.67;;;;;;;6.74;69.13;99789.41;681145;29;22361;-66
2021/11/03 01:22:29;;;;;;;1061.55;991.33;;;;;;;6.74;69.07;99796.59;680550;28;42643;-66
2021/11/03 01:22:50;;;;;;;1060.18;989.97;;;;;;;6.75;68.99;99790.22;683309;28;46325;-66
2021/11/03 01:23:12;;;;;;;1060.40;990.15;;;;;;;6.73;69.16;99790.41;684556;28;1512;-66
2021/11/03 01:23:34;;;;;;;1074.53;999.90;;;;;;;6.72;68.70;99793.25;683894;28;21534;-66
2021/11/03 01:23:55;;;;;;;1083.00;999.90;;;;;;;6.70;68.91;99793.44;683255;28;46302;-65
2021/11/03 01:24:16;;;;;;;1084.07;999.90;;;;;;;6.69;68.69;99794.44;683999;28;21515;-66
2021/11/03 01:24:38;;;;;;;1078.80;999.90;;;;;;;6.69;68.78;99794.44;684462;28;22358;-66
2021/11/03 01:24:59;;;;;;;1080.78;999.90;;;;;;;6.68;68.68;99790.94;683608;28;44135;-66
2021/11/03 01:25:23;;;;;;;1077.28;999.90;;;;;;;6.70;68.97;99795.28;683988;28;22950;-66
2021/11/03 01:25:44;;;;;;;1081.22;999.90;;;;;;;6.70;69.13;99789.94;683773;28;92239;-66
2021/11/03 01:26:05;;;;;;;1088.40;999.90;;;;;;;6.69;68.87;99786.38;685979;28;22378;-65
2021/11/03 01:26:26;;;;;;;1080.47;999.90;;;;;;;6.67;69.00;99789.25;684305;28;21546;-66
2021/11/03 01:26:48;;;;;;;1071.22;999.90;;;;;;;6.67;68.59;99785.75;681112;29;21533;-66
2021/11/03 01:27:09;;;;;;;1070.70;999.80;;;;;;;6.67;68.77;99791.94;677188;29;44396;-66
2021/11/03 01:27:30;;;;;;;1081.55;999.90;;;;;;;6.67;68.70;99793.78;675273;29;21521;-66
2021/11/03 01:27:52;;;;;;;1080.75;999.90;;;;;;;6.68;68.80;99792.78;674654;29;21306;-66
2021/11/03 01:28:14;;;;;;;1077.20;999.90;;;;;;;6.66;68.84;99784.91;671268;29;45259;-66
2021/11/03 01:28:36;;;;;;;1089.03;999.90;;;;;;;6.66;68.86;99792.97;672036;29;67520;-66
2021/11/03 01:28:57;;;;;;;1088.43;999.90;;;;;;;6.66;68.67;99792.97;674850;29;46393;-66
2021/11/03 01:29:18;;;;;;;1086.45;999.90;;;;;;;6.65;68.75;99779.72;675928;29;22368;-66
2021/11/03 01:29:40;;;;;;;1086.95;999.90;;;;;;;6.67;68.66;99791.09;676722;29;21518;-66
2021/11/03 01:30:03;;;;;;;1090.55;999.90;;;;;;;6.66;68.79;99790.28;674805;29;69146;-66
2021/11/03 01:30:26;;;;;;;1090.38;999.90;;;;;;;6.67;68.61;99793.78;680295;29;1521;-66
2021/11/03 01:30:47;;;;;;;1085.85;999.90;;;;;;;6.68;68.74;99790.09;679085;29;45236;-66
2021/11/03 01:31:09;;;;;;;1079.57;999.90;;;;;;;6.67;68.74;99789.25;680499;28;21349;-66
2021/11/03 01:31:30;;;;;;;1083.80;999.90;;;;;;;6.69;68.64;99789.06;682223;28;46349;-66
2021/11/03 01:31:52;;;;;;;1088.95;999.90;;;;;;;6.67;68.71;99791.09;679891;28;45299;-66
2021/11/03 01:32:13;;;;;;;1089.45;999.90;;;;;;;6.68;68.85;99793.63;679318;29;22356;-66
2021/11/03 01:32:34;;;;;;;1087.10;999.90;;;;;;;6.70;68.77;99789.94;681373;29;21521;-66
2021/11/03 01:32:57;;;;;;;1084.20;999.90;;;;;;;6.70;68.89;99800.66;680562;29;43874;-66
2021/11/03 01:33:21;;;;;;;1085.65;999.90;;;;;;;6.68;68.79;99796.28;678648;29;92054;-66
2021/11/03 01:33:43;;;;;;;1083.47;999.90;;;;;;;6.70;68.79;99800.66;681346;28;51104;-67
2021/11/03 01:34:05;;;;;;;1089.15;999.90;;;;;;;6.68;68.59;99790.09;682147;28;21478;-66
2021/11/03 01:34:31;;;;;;;1086.03;999.90;;;;;;;6.70;68.86;99795.28;679017;29;61672;-66
2021/11/03 01:34:52;;;;;;;1087.25;999.90;;;;;;;6.69;68.71;99789.06;679792;28;46307;-66
2021/11/03 01:35:14;;;;;;;1094.05;999.90;;;;;;;6.68;68.81;99795.47;678839;29;21527;-66
2021/11/03 01:35:36;;;;;;;1092.90;999.90;;;;;;;6.69;68.86;99794.44;679185;29;46340;-66
2021/11/03 01:35:58;;;;;;;1096.90;999.90;;;;;;;6.68;68.80;99790.09;673181;29;69299;-66
2021/11/03 01:36:20;;;;;;;1092.03;999.90;;;;;;;6.68;69.05;99792.78;674734;29;46440;-66
2021/11/03 01:36:41;;;;;;;1091.20;999.90;;;;;;;6.69;69.16;99797.13;678554;29;23407;-66
2021/11/03 01:37:03;;;;;;;1085.28;999.90;;;;;;;6.67;68.98;99791.09;677642;29;22430;-68
2021/11/03 01:37:24;;;;;;;1082.65;999.90;;;;;;;6.66;69.05;99784.91;676801;29;69440;-68
2021/11/03 01:37:46;;;;;;;1088.65;999.90;;;;;;;6.66;69.25;99784.91;676997;29;21121;-68
2021/11/03 01:38:08;;;;;;;1081.40;999.90;;;;;;;6.66;69.09;99787.59;676796;29;67466;-68
2021/11/03 01:38:32;;;;;;;1083.38;999.90;;;;;;;6.66;69.24;99781.38;676104;29;92226;-68
2021/11/03 01:38:55;;;;;;;1085.53;999.90;;;;;;;6.66;69.07;99784.91;675445;29;23392;-68
2021/11/03 01:39:17;;;;;;;1084.53;999.90;;;;;;;6.65;69.24;99782.41;672716;29;69408;-68